Time;durP1;ratioP1;P1;durP2;ratioP2;P2;SDS_P1;SDS_P2;PMS_P1;PMS_P2;Temp;Humidity;BMP_temperature;BMP_pressure;BME280_temperature;BME280_humidity;BME280_pressure;Samples;Min_cycle;Max_cycle;Signal;HPM_P1;HPM_P2
2023/05/15 00:02:16;;;;;;;4.50;3.73;;;;;;;;;;5040031;28;20910;-67
2023/05/15 00:04:44;;;;;;;5.73;4.47;;;;;;;;;;5039116;28;20447;-67
2023/05/15 00:07:13;;;;;;;6.33;4.37;;;;;;;;;;5031156;28;20447;-68
2023/05/15 00:09:41;;;;;;;6.40;4.40;;;;;;;;;;5046969;28;20517;-68
2023/05/15 00:12:12;;;;;;;6.23;3.77;;;;;;;;;;5060544;28;20458;-67
2023/05/15 00:14:41;;;;;;;4.57;3.77;;;;;;;;;;5059012;28;20720;-69
2023/05/15 00:17:15;;;;;;;6.23;3.20;;;;;;;;;;5059870;28;20470;-68
2023/05/15 00:19:44;;;;;;;8.03;4.03;;;;;;;;;;5059828;28;20453;-69
2023/05/15 00:22:12;;;;;;;9.47;5.43;;;;;;;;;;5059104;28;20808;-68
2023/05/15 00:24:45;;;;;;;8.30;5.67;;;;;;;;;;5058789;28;20557;-66
2023/05/15 00:27:14;;;;;;;7.43;4.13;;;;;;;;;;5052746;28;20925;-69
2023/05/15 00:29:44;;;;;;;9.77;4.80;;;;;;;;;;5060933;28;20542;-68
2023/05/15 00:32:15;;;;;;;6.00;4.53;;;;;;;;;;5060413;28;20450;-68
2023/05/15 00:34:44;;;;;;;15.40;5.27;;;;;;;;;;5060192;28;20453;-67
2023/05/15 00:37:13;;;;;;;8.67;5.00;;;;;;;;;;5050060;28;20468;-68
2023/05/15 00:39:41;;;;;;;9.83;4.43;;;;;;;;;;5058175;28;20474;-68
2023/05/15 00:42:11;;;;;;;6.90;4.67;;;;;;;;;;5058573;28;20461;-67
2023/05/15 00:44:43;;;;;;;9.30;4.47;;;;;;;;;;5057525;28;20450;-69
2023/05/15 00:47:21;;;;;;;7.30;4.63;;;;;;;;;;5056277;28;20458;-68
2023/05/15 00:49:52;;;;;;;10.53;5.40;;;;;;;;;;5056424;28;20516;-67
2023/05/15 00:52:21;;;;;;;5.83;4.77;;;;;;;;;;5057118;28;20712;-67
2023/05/15 00:54:49;;;;;;;7.37;5.00;;;;;;;;;;5056261;28;20788;-69
2023/05/15 00:57:20;;;;;;;7.47;5.47;;;;;;;;;;5057093;28;20865;-66
2023/05/15 00:59:49;;;;;;;8.23;4.50;;;;;;;;;;5058545;28;20469;-68
2023/05/15 01:02:19;;;;;;;10.90;4.70;;;;;;;;;;5057793;28;20458;-68
2023/05/15 01:04:47;;;;;;;6.10;4.83;;;;;;;;;;5043846;28;20906;-68
2023/05/15 01:07:30;;;;;;;8.77;5.07;;;;;;;;;;5039247;28;20540;-68
2023/05/15 01:10:08;;;;;;;8.00;4.70;;;;;;;;;;5039012;28;20455;-68
2023/05/15 01:12:37;;;;;;;6.17;5.00;;;;;;;;;;5038999;28;20711;-68
2023/05/15 01:15:09;;;;;;;8.77;4.67;;;;;;;;;;5039644;28;20455;-68
2023/05/15 01:17:37;;;;;;;6.67;5.57;;;;;;;;;;5039205;28;20579;-68
2023/05/15 01:20:12;;;;;;;8.60;4.20;;;;;;;;;;5057181;28;20484;-68
2023/05/15 01:22:48;;;;;;;13.13;8.00;;;;;;;;;;5059097;28;20465;-69
2023/05/15 01:25:31;;;;;;;6.00;4.83;;;;;;;;;;5057015;28;20461;-68
2023/05/15 01:28:03;;;;;;;8.83;5.23;;;;;;;;;;5058060;28;20527;-69
2023/05/15 01:30:32;;;;;;;6.87;4.30;;;;;;;;;;5058250;28;20454;-68
2023/05/15 01:33:04;;;;;;;6.23;5.30;;;;;;;;;;5058617;28;20490;-68
2023/05/15 01:35:34;;;;;;;7.57;5.37;;;;;;;;;;5057677;28;20508;-68
2023/05/15 01:38:05;;;;;;;8.93;5.40;;;;;;;;;;5056879;28;20462;-68
2023/05/15 01:40:34;;;;;;;8.83;4.90;;;;;;;;;;5058975;28;20458;-68
2023/05/15 01:43:07;;;;;;;8.10;5.40;;;;;;;;;;5058018;28;20860;-68
2023/05/15 01:45:36;;;;;;;7.30;5.60;;;;;;;;;;5055956;28;20869;-68
2023/05/15 01:48:08;;;;;;;6.70;4.87;;;;;;;;;;5057180;28;20539;-68
2023/05/15 01:50:43;;;;;;;7.03;5.30;;;;;;;;;;5057641;28;20554;-68
2023/05/15 01:53:11;;;;;;;6.77;4.63;;;;;;;;;;5057309;28;20929;-67
2023/05/15 01:55:40;;;;;;;7.17;4.80;;;;;;;;;;5057136;28;20913;-68
2023/05/15 01:58:10;;;;;;;9.03;5.43;;;;;;;;;;5058322;28;20936;-68
2023/05/15 02:00:39;;;;;;;8.30;5.30;;;;;;;;;;5058709;28;20493;-67
2023/05/15 02:03:14;;;;;;;8.00;5.13;;;;;;;;;;5059133;28;20454;-67
2023/05/15 02:05:43;;;;;;;7.73;5.70;;;;;;;;;;5058244;28;20453;-68
2023/05/15 02:08:12;;;;;;;10.40;5.27;;;;;;;;;;5043731;28;20760;-68
2023/05/15 02:10:43;;;;;;;4.90;4.30;;;;;;;;;;5038259;28;20481;-67
2023/05/15 02:13:15;;;;;;;8.13;6.57;;;;;;;;;;5029025;28;20518;-68
2023/05/15 02:15:44;;;;;;;8.67;5.97;;;;;;;;;;5039301;28;20450;-68
2023/05/15 02:18:13;;;;;;;7.13;5.50;;;;;;;;;;5039539;28;20545;-68
2023/05/15 02:20:42;;;;;;;8.07;6.30;;;;;;;;;;5039912;28;20455;-68
2023/05/15 02:23:11;;;;;;;10.10;7.20;;;;;;;;;;5038068;28;20466;-68
2023/05/15 02:25:44;;;;;;;8.60;6.07;;;;;;;;;;5039599;28;20537;-68
2023/05/15 02:28:18;;;;;;;7.77;6.03;;;;;;;;;;5038755;28;20463;-69
2023/05/15 02:30:50;;;;;;;9.87;6.40;;;;;;;;;;5039525;28;20501;-69
2023/05/15 02:33:32;;;;;;;9.33;7.40;;;;;;;;;;5039462;28;20487;-68
2023/05/15 02:36:01;;;;;;;10.40;6.20;;;;;;;;;;5038367;28;20692;-68
2023/05/15 02:38:30;;;;;;;6.90;6.00;;;;;;;;;;5037614;28;20466;-69
2023/05/15 02:40:59;;;;;;;9.37;6.00;;;;;;;;;;5038316;28;20458;-69
2023/05/15 02:43:30;;;;;;;13.60;5.97;;;;;;;;;;5038552;28;20485;-69
2023/05/15 02:45:58;;;;;;;6.37;5.77;;;;;;;;;;5037819;28;20469;-69
2023/05/15 02:48:27;;;;;;;9.03;6.23;;;;;;;;;;5037659;28;20865;-69
2023/05/15 02:50:55;;;;;;;7.60;6.10;;;;;;;;;;5037769;28;20530;-68
2023/05/15 02:53:25;;;;;;;10.00;5.87;;;;;;;;;;5047158;28;20509;-69
2023/05/15 02:55:57;;;;;;;8.33;6.47;;;;;;;;;;5057399;28;20457;-69
2023/05/15 02:58:26;;;;;;;8.60;6.67;;;;;;;;;;5057377;28;20878;-69
2023/05/15 03:00:56;;;;;;;12.40;6.23;;;;;;;;;;5058467;28;20552;-67
2023/05/15 03:03:24;;;;;;;9.93;6.50;;;;;;;;;;5057945;28;20474;-67
2023/05/15 03:05:53;;;;;;;9.20;6.10;;;;;;;;;;5058682;28;20462;-68
2023/05/15 03:08:22;;;;;;;9.30;6.53;;;;;;;;;;5057347;28;20438;-68
2023/05/15 03:10:50;;;;;;;10.70;6.67;;;;;;;;;;5057700;28;20454;-68
2023/05/15 03:13:18;;;;;;;8.20;6.27;;;;;;;;;;5057006;28;20492;-67
2023/05/15 03:15:47;;;;;;;9.53;6.97;;;;;;;;;;5056705;28;20830;-67
2023/05/15 03:18:19;;;;;;;9.27;7.00;;;;;;;;;;5056420;28;20442;-68
2023/05/15 03:20:49;;;;;;;10.20;6.63;;;;;;;;;;5056124;28;20457;-68
2023/05/15 03:23:17;;;;;;;9.97;7.83;;;;;;;;;;5053959;28;20493;-67
2023/05/15 03:25:45;;;;;;;9.20;7.27;;;;;;;;;;5057215;28;20757;-67
2023/05/15 03:28:14;;;;;;;7.27;6.57;;;;;;;;;;5051014;28;20442;-68
2023/05/15 03:30:45;;;;;;;13.13;8.60;;;;;;;;;;5059444;28;20453;-67
2023/05/15 03:33:13;;;;;;;10.33;7.47;;;;;;;;;;5059152;28;20454;-69
2023/05/15 03:35:44;;;;;;;9.60;7.00;;;;;;;;;;5059355;28;20866;-69
2023/05/15 03:38:13;;;;;;;11.73;7.63;;;;;;;;;;5061619;28;20457;-67
2023/05/15 03:40:41;;;;;;;8.60;6.80;;;;;;;;;;5060597;28;20862;-68
2023/05/15 03:43:09;;;;;;;10.20;7.73;;;;;;;;;;5060965;28;20486;-67
2023/05/15 03:45:37;;;;;;;8.83;7.57;;;;;;;;;;5060081;28;20468;-68
2023/05/15 03:48:06;;;;;;;9.60;7.27;;;;;;;;;;5044513;28;20458;-68
2023/05/15 03:50:38;;;;;;;8.50;6.77;;;;;;;;;;5040614;28;20453;-67
2023/05/15 03:53:10;;;;;;;9.20;7.83;;;;;;;;;;5040082;28;20892;-67
2023/05/15 03:55:38;;;;;;;9.93;7.73;;;;;;;;;;5023188;28;20498;-68
2023/05/15 03:58:07;;;;;;;11.03;7.50;;;;;;;;;;5040184;28;20454;-68
2023/05/15 04:00:35;;;;;;;9.10;7.73;;;;;;;;;;5038905;28;20487;-67
2023/05/15 04:03:05;;;;;;;10.63;7.67;;;;;;;;;;5038479;28;20450;-68
2023/05/15 04:05:33;;;;;;;12.13;7.83;;;;;;;;;;5038749;28;20474;-68
2023/05/15 04:08:06;;;;;;;15.10;8.10;;;;;;;;;;5038464;28;20462;-69
2023/05/15 04:10:43;;;;;;;9.83;8.00;;;;;;;;;;5050496;28;20514;-68
2023/05/15 04:13:11;;;;;;;9.27;7.40;;;;;;;;;;5038295;28;20451;-68
2023/05/15 04:15:40;;;;;;;13.23;7.70;;;;;;;;;;5039763;28;20573;-68
2023/05/15 04:18:08;;;;;;;10.00;8.10;;;;;;;;;;5039642;28;20463;-69
2023/05/15 04:20:40;;;;;;;10.83;7.40;;;;;;;;;;5039731;28;20455;-67
2023/05/15 04:23:20;;;;;;;12.67;8.90;;;;;;;;;;5040212;28;20462;-67
2023/05/15 04:25:52;;;;;;;15.23;12.10;;;;;;;;;;5037333;28;20756;-68
2023/05/15 04:28:21;;;;;;;13.10;10.00;;;;;;;;;;5039801;28;20458;-67
2023/05/15 04:30:50;;;;;;;13.30;9.83;;;;;;;;;;5038197;28;20436;-68
2023/05/15 04:33:19;;;;;;;10.40;7.93;;;;;;;;;;5038430;28;20542;-68
2023/05/15 04:35:47;;;;;;;10.07;7.37;;;;;;;;;;5036877;28;20494;-68
2023/05/15 04:38:15;;;;;;;11.47;8.17;;;;;;;;;;5039773;28;20455;-69
2023/05/15 04:40:43;;;;;;;11.07;7.20;;;;;;;;;;5038474;28;20882;-68
2023/05/15 04:43:13;;;;;;;8.57;7.10;;;;;;;;;;5040740;28;20451;-68
2023/05/15 04:45:43;;;;;;;8.70;7.20;;;;;;;;;;5038234;28;20879;-67
2023/05/15 04:48:18;;;;;;;11.57;7.60;;;;;;;;;;5032393;28;20469;-69
2023/05/15 04:50:47;;;;;;;10.10;7.67;;;;;;;;;;5039147;28;20477;-69
2023/05/15 04:53:16;;;;;;;10.70;7.97;;;;;;;;;;5036340;28;20968;-69
2023/05/15 04:55:45;;;;;;;8.30;7.20;;;;;;;;;;5036910;28;20491;-69
2023/05/15 04:58:15;;;;;;;7.17;6.33;;;;;;;;;;5035402;28;20440;-68
2023/05/15 05:00:44;;;;;;;15.27;8.80;;;;;;;;;;5036061;28;20455;-67
2023/05/15 05:03:12;;;;;;;10.37;6.73;;;;;;;;;;5028344;28;20466;-68
2023/05/15 05:05:41;;;;;;;10.77;6.60;;;;;;;;;;5035914;28;20475;-68
2023/05/15 05:08:10;;;;;;;10.43;8.33;;;;;;;;;;5038328;28;20547;-69
2023/05/15 05:10:41;;;;;;;13.03;9.30;;;;;;;;;;5036140;28;20466;-68
2023/05/15 05:13:13;;;;;;;10.07;7.07;;;;;;;;;;5035450;28;20480;-68
2023/05/15 05:15:43;;;;;;;8.03;7.23;;;;;;;;;;5036782;28;20478;-68
2023/05/15 05:18:12;;;;;;;7.93;6.97;;;;;;;;;;5036787;28;20975;-68
2023/05/15 05:26:46;;;;;;;9.47;6.80;;;;;;;;;;5064228;28;20990;-68
2023/05/15 05:29:14;;;;;;;8.90;6.40;;;;;;;;;;5090590;28;20906;-69
2023/05/15 05:31:43;;;;;;;12.30;6.63;;;;;;;;;;5088306;28;20507;-70
2023/05/15 05:34:10;;;;;;;8.83;7.07;;;;;;;;;;5088368;28;20492;-67
2023/05/15 05:36:38;;;;;;;8.87;6.33;;;;;;;;;;5087965;28;20759;-68
2023/05/15 05:39:06;;;;;;;8.80;5.83;;;;;;;;;;5090059;28;20532;-68
2023/05/15 05:41:34;;;;;;;14.80;7.97;;;;;;;;;;5090519;28;20459;-68
2023/05/15 05:44:02;;;;;;;8.20;7.30;;;;;;;;;;5090688;28;20535;-68
2023/05/15 05:46:30;;;;;;;7.93;7.23;;;;;;;;;;5090637;28;20463;-69
2023/05/15 05:48:59;;;;;;;8.53;6.20;;;;;;;;;;5088690;28;20452;-68
2023/05/15 05:51:26;;;;;;;6.63;5.90;;;;;;;;;;5093820;28;20466;-68
2023/05/15 05:53:53;;;;;;;11.13;6.67;;;;;;;;;;5089350;28;20460;-69
2023/05/15 05:56:21;;;;;;;9.60;6.60;;;;;;;;;;5092353;28;20545;-67
2023/05/15 05:58:49;;;;;;;9.20;6.30;;;;;;;;;;5090883;28;20463;-68
2023/05/15 06:01:20;;;;;;;8.73;6.97;;;;;;;;;;5089013;28;20457;-68
2023/05/15 06:04:06;;;;;;;7.63;6.80;;;;;;;;;;5071887;28;20453;-68
2023/05/15 06:06:53;;;;;;;12.50;7.13;;;;;;;;;;5073693;28;20449;-68
